Time;durP1;ratioP1;P1;durP2;ratioP2;P2;SDS_P1;SDS_P2;PMS_P1;PMS_P2;Temp;Humidity;BMP_temperature;BMP_pressure;BME280_temperature;BME280_humidity;BME280_pressure;Samples;Min_cycle;Max_cycle;Signal;HPM_P1;HPM_P2
2024/02/17 00:02:16;;;;;;;12.23;6.93;;;7.90;99.90;;;;;;5088236;28;20105;-63
2024/02/17 00:04:42;;;;;;;15.48;7.75;;;7.80;99.90;;;;;;5103177;28;20040;-63
2024/02/17 00:07:08;;;;;;;14.25;7.65;;;7.90;99.90;;;;;;5076469;28;20040;-63
2024/02/17 00:09:34;;;;;;;11.80;7.60;;;7.90;99.90;;;;;;5094280;28;20028;-63
2024/02/17 00:12:00;;;;;;;14.63;7.65;;;7.90;99.90;;;;;;5081561;28;20447;-63
2024/02/17 00:14:25;;;;;;;16.85;8.07;;;8.00;99.90;;;;;;5077691;28;20070;-63
2024/02/17 00:16:51;;;;;;;13.93;8.20;;;8.00;99.90;;;;;;5095956;28;20035;-63
2024/02/17 00:19:17;;;;;;;12.80;7.40;;;8.00;99.90;;;;;;5080294;28;20390;-63
2024/02/17 00:21:43;;;;;;;16.45;8.60;;;8.00;99.90;;;;;;5077907;28;20512;-63
2024/02/17 00:24:08;;;;;;;13.85;9.90;;;8.00;99.90;;;;;;5079657;28;20048;-63
2024/02/17 00:26:34;;;;;;;12.38;7.85;;;8.10;99.90;;;;;;5099836;28;20119;-63
2024/02/17 00:29:00;;;;;;;14.52;8.23;;;8.10;99.90;;;;;;5076395;28;20059;-63
2024/02/17 00:31:25;;;;;;;16.50;8.70;;;8.10;99.90;;;;;;5078263;28;20070;-63
2024/02/17 00:33:52;;;;;;;16.70;8.48;;;8.10;99.90;;;;;;5093609;28;20044;-63
2024/02/17 00:36:18;;;;;;;12.73;8.38;;;8.20;99.90;;;;;;5078662;28;20067;-63
2024/02/17 00:38:44;;;;;;;17.70;8.63;;;8.20;99.90;;;;;;5094416;28;20440;-63
2024/02/17 00:41:10;;;;;;;16.65;8.20;;;8.20;99.90;;;;;;5080937;28;20047;-63
2024/02/17 00:43:36;;;;;;;12.82;9.00;;;8.20;99.90;;;;;;5082866;28;20088;-63
2024/02/17 00:46:02;;;;;;;14.73;8.88;;;8.10;99.90;;;;;;5081471;28;20421;-63
2024/02/17 00:48:27;;;;;;;18.33;9.57;;;8.20;99.90;;;;;;5091913;28;20033;-63
2024/02/17 00:50:54;;;;;;;17.75;9.25;;;8.20;99.90;;;;;;5092888;28;20040;-63
2024/02/17 00:53:20;;;;;;;15.48;9.45;;;8.10;99.90;;;;;;5096175;28;20044;-63
2024/02/17 00:55:45;;;;;;;16.48;9.05;;;8.20;99.90;;;;;;5098408;28;20410;-63
2024/02/17 00:58:11;;;;;;;21.73;9.85;;;8.20;99.90;;;;;;5077528;28;20051;-63
2024/02/17 01:00:37;;;;;;;18.48;10.15;;;8.20;99.90;;;;;;5096024;28;20072;-63
2024/02/17 01:03:03;;;;;;;18.70;10.10;;;8.20;99.90;;;;;;5079228;28;20051;-63
2024/02/17 01:05:29;;;;;;;18.10;10.52;;;8.20;99.90;;;;;;5096908;28;20039;-64
2024/02/17 01:07:54;;;;;;;16.90;9.63;;;8.20;99.90;;;;;;5098978;28;20036;-63
2024/02/17 01:10:20;;;;;;;15.48;9.35;;;8.30;99.90;;;;;;5079702;28;20039;-64
2024/02/17 01:12:46;;;;;;;17.30;10.35;;;8.20;99.90;;;;;;5099684;28;20039;-63
2024/02/17 01:15:12;;;;;;;17.60;9.88;;;8.30;99.90;;;;;;5085649;28;20031;-63
2024/02/17 01:17:37;;;;;;;17.75;10.00;;;8.30;99.90;;;;;;5101304;28;20043;-63
2024/02/17 01:20:03;;;;;;;20.65;10.85;;;8.30;99.90;;;;;;5097534;28;20035;-64
2024/02/17 01:22:29;;;;;;;20.33;10.30;;;8.30;99.90;;;;;;5101510;28;20043;-64
2024/02/17 01:24:55;;;;;;;16.35;9.90;;;8.40;99.90;;;;;;5080344;28;20040;-63
2024/02/17 01:27:20;;;;;;;19.15;11.43;;;8.30;99.90;;;;;;5099728;28;20057;-63
2024/02/17 01:29:46;;;;;;;16.05;10.50;;;8.40;99.90;;;;;;5077829;28;20393;-63
2024/02/17 01:32:11;;;;;;;16.27;10.02;;;8.40;99.90;;;;;;5095575;28;20109;-63
2024/02/17 01:34:37;;;;;;;16.58;10.35;;;8.40;99.90;;;;;;5100908;28;20497;-63
2024/02/17 01:37:03;;;;;;;19.00;10.65;;;8.40;99.90;;;;;;5099603;28;20031;-63
2024/02/17 01:39:29;;;;;;;17.10;10.68;;;8.40;99.90;;;;;;5080839;28;20066;-63
2024/02/17 01:41:55;;;;;;;24.65;10.75;;;8.40;99.90;;;;;;5101699;28;20366;-63
2024/02/17 01:44:20;;;;;;;24.58;11.57;;;8.40;99.90;;;;;;5078978;28;20047;-63
2024/02/17 01:46:47;;;;;;;17.17;10.85;;;8.40;99.90;;;;;;5080589;28;20040;-63
2024/02/17 01:49:14;;;;;;;17.80;11.68;;;8.40;99.90;;;;;;5078830;28;20058;-63
2024/02/17 01:51:40;;;;;;;24.10;11.88;;;8.40;99.90;;;;;;5085355;28;20078;-63
2024/02/17 01:54:08;;;;;;;18.80;12.32;;;8.40;99.90;;;;;;5081235;28;20052;-63
2024/02/17 01:56:34;;;;;;;15.65;11.23;;;8.40;99.90;;;;;;5099296;28;20032;-63
2024/02/17 01:59:00;;;;;;;19.42;11.20;;;8.40;99.90;;;;;;5074714;28;20032;-63
2024/02/17 02:01:26;;;;;;;24.33;11.20;;;8.40;99.90;;;;;;5095869;28;20097;-63
2024/02/17 02:03:51;;;;;;;19.88;11.40;;;8.40;99.90;;;;;;5074340;28;20040;-63
2024/02/17 02:06:22;;;;;;;17.02;11.15;;;8.40;99.90;;;;;;5078701;28;20097;-63
2024/02/17 02:08:49;;;;;;;19.80;11.15;;;8.60;99.90;;;;;;5081500;28;20042;-63
2024/02/17 02:11:15;;;;;;;17.80;10.50;;;8.50;99.90;;;;;;5098033;28;20061;-63
2024/02/17 02:13:41;;;;;;;22.27;11.57;;;8.50;99.90;;;;;;5097810;28;20050;-63
2024/02/17 02:16:07;;;;;;;18.67;11.07;;;8.50;99.90;;;;;;5094996;28;20036;-63
2024/02/17 02:18:33;;;;;;;19.00;11.45;;;8.50;99.90;;;;;;5078456;28;20067;-63
2024/02/17 02:20:59;;;;;;;16.38;11.27;;;8.50;99.90;;;;;;5078511;28;20479;-63
2024/02/17 02:23:25;;;;;;;18.58;11.75;;;8.50;99.90;;;;;;5078456;28;20098;-63
2024/02/17 02:25:54;;;;;;;20.23;12.30;;;8.60;99.90;;;;;;5082401;28;20036;-63
2024/02/17 02:28:20;;;;;;;20.90;11.85;;;8.60;99.90;;;;;;5095657;28;20044;-63
2024/02/17 02:30:46;;;;;;;19.58;11.43;;;8.70;99.90;;;;;;5076877;28;20032;-63
2024/02/17 02:33:12;;;;;;;22.17;11.50;;;8.70;99.90;;;;;;5077997;28;20130;-63
2024/02/17 02:35:37;;;;;;;19.88;11.80;;;8.70;99.90;;;;;;5095921;28;20039;-63
2024/02/17 02:38:03;;;;;;;21.73;11.75;;;8.70;99.90;;;;;;5099171;28;20028;-64
2024/02/17 02:40:29;;;;;;;19.60;11.45;;;8.70;99.90;;;;;;5075405;28;20084;-63
2024/02/17 02:42:57;;;;;;;20.55;12.95;;;8.80;99.90;;;;;;5079053;28;20054;-63
2024/02/17 02:45:23;;;;;;;18.65;12.10;;;8.70;99.90;;;;;;5081939;28;20043;-63
2024/02/17 02:47:49;;;;;;;21.75;12.02;;;8.80;99.90;;;;;;5078695;28;20039;-63
2024/02/17 02:50:15;;;;;;;15.68;10.32;;;8.90;99.90;;;;;;5078924;28;20047;-63
2024/02/17 02:52:40;;;;;;;19.27;11.20;;;8.80;99.90;;;;;;5109062;27;20092;-63
2024/02/17 02:55:06;;;;;;;17.33;11.65;;;8.80;99.90;;;;;;5096443;28;20115;-64
2024/02/17 02:57:32;;;;;;;20.88;10.85;;;8.80;99.90;;;;;;5095661;28;20042;-63
2024/02/17 02:59:58;;;;;;;21.95;11.70;;;9.00;99.90;;;;;;5077973;28;20036;-63
2024/02/17 03:02:24;;;;;;;17.95;11.30;;;9.00;99.90;;;;;;5077740;28;20066;-63
2024/02/17 03:04:52;;;;;;;19.33;11.32;;;8.80;99.90;;;;;;5076657;28;20032;-63
2024/02/17 03:07:17;;;;;;;17.65;11.65;;;8.80;99.90;;;;;;5079214;28;20482;-64
2024/02/17 03:09:43;;;;;;;17.85;11.05;;;8.80;99.90;;;;;;5079734;28;20032;-63
2024/02/17 03:12:09;;;;;;;24.58;12.65;;;8.80;99.90;;;;;;5079170;28;20040;-63
2024/02/17 03:14:36;;;;;;;16.42;11.43;;;8.80;99.90;;;;;;5062776;28;20036;-63
2024/02/17 03:17:03;;;;;;;17.77;11.30;;;8.80;99.90;;;;;;5080985;28;20051;-63
2024/02/17 03:19:29;;;;;;;19.73;12.00;;;8.90;99.90;;;;;;5079608;28;20402;-63
2024/02/17 03:21:55;;;;;;;18.42;11.60;;;8.90;99.90;;;;;;5075597;28;20044;-63
2024/02/17 03:24:20;;;;;;;22.20;12.05;;;8.80;99.90;;;;;;5092012;28;20047;-63
2024/02/17 03:26:46;;;;;;;16.85;11.02;;;8.80;99.90;;;;;;5078770;28;20089;-64
2024/02/17 03:29:12;;;;;;;17.52;11.40;;;8.80;99.90;;;;;;5075209;28;20123;-63
2024/02/17 03:31:38;;;;;;;16.80;10.95;;;8.80;99.90;;;;;;5072805;28;20449;-63
2024/02/17 03:34:05;;;;;;;17.23;10.82;;;8.80;99.90;;;;;;5079179;28;20052;-64
2024/02/17 03:36:34;;;;;;;16.63;10.43;;;8.80;99.90;;;;;;5082792;28;20047;-63
2024/02/17 03:39:06;;;;;;;15.20;9.60;;;8.80;99.90;;;;;;5098066;28;20036;-63
2024/02/17 03:41:31;;;;;;;14.23;9.70;;;8.80;99.90;;;;;;5099553;28;20390;-63
2024/02/17 03:43:57;;;;;;;16.38;9.63;;;8.80;99.90;;;;;;5076287;28;20096;-63
2024/02/17 03:46:23;;;;;;;19.02;9.27;;;8.80;99.90;;;;;;5100348;28;20489;-63
2024/02/17 03:48:49;;;;;;;17.02;10.25;;;8.80;99.90;;;;;;5094856;28;20141;-63
2024/02/17 03:51:15;;;;;;;16.17;10.23;;;8.80;99.90;;;;;;5078090;28;20082;-63
2024/02/17 03:53:41;;;;;;;17.73;9.50;;;8.80;99.90;;;;;;5108567;27;20097;-63
2024/02/17 03:56:07;;;;;;;15.43;10.13;;;8.80;99.90;;;;;;5113810;27;20695;-63
2024/02/17 03:58:32;;;;;;;17.30;8.95;;;8.70;99.90;;;;;;5081375;28;20131;-63
2024/02/17 04:00:58;;;;;;;19.35;9.75;;;8.70;99.90;;;;;;5096401;28;20039;-63
2024/02/17 04:03:24;;;;;;;15.68;9.20;;;8.70;99.90;;;;;;5077176;28;20039;-63
2024/02/17 04:05:49;;;;;;;16.33;9.88;;;8.70;99.90;;;;;;5077960;28;20428;-63
2024/02/17 04:08:15;;;;;;;20.38;10.40;;;8.70;99.90;;;;;;5097112;28;20727;-63
2024/02/17 04:10:41;;;;;;;19.13;10.30;;;8.70;99.90;;;;;;5084075;28;20067;-63
2024/02/17 04:13:07;;;;;;;15.95;9.27;;;8.60;99.90;;;;;;5077739;28;20498;-63
2024/02/17 04:15:33;;;;;;;15.98;10.02;;;8.60;99.90;;;;;;5074253;28;20043;-63
2024/02/17 04:18:00;;;;;;;17.40;10.88;;;8.60;99.90;;;;;;5061992;28;20434;-63
2024/02/17 04:20:25;;;;;;;21.25;9.77;;;8.60;99.90;;;;;;5106255;27;20056;-63
2024/02/17 04:22:51;;;;;;;20.20;9.98;;;8.60;99.90;;;;;;5075675;28;20070;-63
2024/02/17 04:25:17;;;;;;;16.27;9.98;;;8.50;99.90;;;;;;5077124;28;20088;-64
2024/02/17 04:27:42;;;;;;;17.45;9.35;;;8.50;99.90;;;;;;5098590;28;20040;-63
2024/02/17 04:30:08;;;;;;;17.08;9.88;;;8.50;99.90;;;;;;5062891;28;20035;-63
2024/02/17 04:32:34;;;;;;;20.67;10.30;;;8.50;99.90;;;;;;5078647;28;20401;-63
2024/02/17 04:34:59;;;;;;;20.42;9.35;;;8.50;99.90;;;;;;5091377;28;20032;-63
2024/02/17 04:37:25;;;;;;;17.30;9.32;;;8.50;99.90;;;;;;5079314;28;20516;-63
2024/02/17 04:39:51;;;;;;;14.05;9.20;;;8.40;99.90;;;;;;5078178;28;20027;-63
2024/02/17 04:42:16;;;;;;;12.32;8.55;;;8.50;99.90;;;;;;5080833;28;20057;-63
2024/02/17 04:44:42;;;;;;;16.83;9.52;;;8.40;99.90;;;;;;5078608;28;20072;-63
2024/02/17 04:47:08;;;;;;;17.02;8.88;;;8.40;99.90;;;;;;5108036;27;20044;-63
2024/02/17 04:49:34;;;;;;;12.00;7.60;;;8.40;99.90;;;;;;5076742;28;20115;-63
2024/02/17 04:52:00;;;;;;;11.13;6.95;;;8.30;99.90;;;;;;5110472;28;20036;-63
2024/02/17 04:54:25;;;;;;;12.00;7.18;;;8.30;99.90;;;;;;5077506;28;20051;-63
2024/02/17 04:56:51;;;;;;;14.10;6.70;;;8.20;99.90;;;;;;5100416;28;20078;-63
2024/02/17 04:59:16;;;;;;;15.63;7.53;;;8.30;99.90;;;;;;5077042;28;20052;-63
2024/02/17 05:01:44;;;;;;;6.72;5.63;;;8.20;99.90;;;;;;5074645;28;20378;-63
2024/02/17 05:04:10;;;;;;;10.23;5.85;;;8.30;99.90;;;;;;5073658;28;20058;-63
2024/02/17 05:06:35;;;;;;;13.23;6.78;;;8.20;99.90;;;;;;5086996;28;20036;-63
2024/02/17 05:09:01;;;;;;;12.50;6.28;;;8.30;99.90;;;;;;5094437;28;20077;-63
2024/02/17 05:11:27;;;;;;;16.35;5.95;;;8.20;99.90;;;;;;5080799;28;20039;-63
2024/02/17 05:13:52;;;;;;;9.93;5.95;;;8.20;99.90;;;;;;5099015;28;20186;-63
2024/02/17 05:16:18;;;;;;;7.57;5.53;;;8.20;99.90;;;;;;5078900;28;20052;-63
2024/02/17 05:18:44;;;;;;;11.60;5.55;;;8.20;99.90;;;;;;5091500;28;20038;-63
2024/02/17 05:21:10;;;;;;;8.88;5.28;;;8.20;99.90;;;;;;5079263;28;20037;-63
2024/02/17 05:23:36;;;;;;;7.25;5.00;;;8.10;99.90;;;;;;5094032;28;20036;-63
2024/02/17 05:26:02;;;;;;;6.53;5.38;;;8.20;99.90;;;;;;5077622;28;20097;-63
2024/02/17 05:28:28;;;;;;;7.97;5.03;;;8.10;99.90;;;;;;5080615;28;20044;-63
2024/02/17 05:30:54;;;;;;;8.52;5.45;;;8.10;99.90;;;;;;5093313;28;20051;-63
2024/02/17 05:33:20;;;;;;;10.07;5.57;;;8.10;99.90;;;;;;5107871;28;20090;-63
2024/02/17 05:35:46;;;;;;;9.30;5.50;;;8.10;99.90;;;;;;5111323;28;20075;-63
2024/02/17 05:38:12;;;;;;;8.20;5.43;;;8.10;99.90;;;;;;5093915;28;20135;-63
2024/02/17 05:40:38;;;;;;;10.63;6.25;;;8.00;99.90;;;;;;5080529;28;20566;-63
2024/02/17 05:43:04;;;;;;;9.20;5.22;;;8.10;99.90;;;;;;5094165;28;20942;-63
2024/02/17 05:45:30;;;;;;;8.77;4.95;;;8.00;99.90;;;;;;5107830;28;20394;-63
2024/02/17 05:47:55;;;;;;;10.23;6.00;;;8.00;99.90;;;;;;5105937;28;20032;-63
2024/02/17 05:50:21;;;;;;;10.82;6.55;;;8.00;99.90;;;;;;5078109;28;20094;-63
2024/02/17 05:52:49;;;;;;;15.90;6.47;;;7.90;99.90;;;;;;5094344;28;20402;-63
2024/02/17 05:55:16;;;;;;;10.35;5.45;;;8.00;99.90;;;;;;5097544;28;20042;-64
2024/02/17 05:57:41;;;;;;;8.55;5.15;;;8.00;99.90;;;;;;5078500;28;20411;-63
2024/02/17 06:00:08;;;;;;;6.20;4.90;;;8.00;99.90;;;;;;5088325;28;20040;-63
2024/02/17 06:02:34;;;;;;;7.30;4.05;;;8.00;99.90;;;;;;5093321;28;20047;-63
2024/02/17 06:05:01;;;;;;;8.55;4.47;;;8.00;99.90;;;;;;5077328;28;20040;-63
2024/02/17 06:07:26;;;;;;;4.07;3.25;;;7.90;99.90;;;;;;5113139;27;20115;-63
2024/02/17 06:09:53;;;;;;;5.80;2.70;;;7.90;99.90;;;;;;5078486;28;20130;-63
2024/02/17 06:12:19;;;;;;;4.90;3.35;;;7.90;99.90;;;;;;5084533;28;20047;-63
2024/02/17 06:14:44;;;;;;;4.60;3.10;;;8.00;99.90;;;;;;5074072;28;20102;-63
2024/02/17 06:17:22;;;;;;;3.85;2.65;;;7.90;99.90;;;;;;5083124;28;20131;-63
2024/02/17 06:22:32;;;;;;;5.20;2.60;;;7.90;99.90;;;;;;5107419;27;20131;-63
2024/02/17 06:24:58;;;;;;;4.80;2.47;;;7.90;99.90;;;;;;5082263;28;20115;-63
2024/02/17 06:27:24;;;;;;;4.47;2.42;;;7.80;99.90;;;;;;5085776;28;20036;-63
2024/02/17 06:29:50;;;;;;;3.78;2.72;;;7.90;99.90;;;;;;5075540;28;21243;-63
2024/02/17 06:32:16;;;;;;;5.35;2.22;;;7.90;99.90;;;;;;5060814;28;20044;-63
2024/02/17 06:34:42;;;;;;;6.88;2.80;;;7.90;99.90;;;;;;5078610;28;20083;-63
2024/02/17 06:37:08;;;;;;;4.15;2.20;;;7.80;99.90;;;;;;5095628;28;20044;-63
2024/02/17 06:39:34;;;;;;;6.55;2.47;;;7.90;99.90;;;;;;5078298;28;20115;-63
2024/02/17 06:42:00;;;;;;;4.50;2.63;;;7.90;99.90;;;;;;5079435;28;20137;-63
2024/02/17 06:44:27;;;;;;;5.35;2.10;;;7.90;99.90;;;;;;5081045;28;20052;-63
2024/02/17 06:46:53;;;;;;;2.53;1.40;;;7.90;99.90;;;;;;5097101;28;20160;-63
2024/02/17 06:49:19;;;;;;;4.22;2.28;;;7.80;99.90;;;;;;5060821;28;20040;-63
2024/02/17 06:51:45;;;;;;;5.18;1.50;;;7.80;99.90;;;;;;5056658;28;20067;-63
2024/02/17 06:54:12;;;;;;;4.18;2.10;;;7.80;99.90;;;;;;5090092;28;20047;-63
2024/02/17 06:56:37;;;;;;;4.55;1.23;;;7.80;99.90;;;;;;5094525;28;20036;-63
2024/02/17 06:59:03;;;;;;;5.80;2.08;;;7.80;99.90;;;;;;5072403;28;20059;-63
2024/02/17 07:01:29;;;;;;;4.00;1.30;;;7.80;99.90;;;;;;5071548;28;20055;-63
2024/02/17 07:03:55;;;;;;;4.82;1.40;;;7.70;99.90;;;;;;5072808;28;20161;-63
2024/02/17 07:06:21;;;;;;;4.80;1.20;;;7.70;99.90;;;;;;5074589;28;20123;-63
2024/02/17 07:08:47;;;;;;;3.53;1.38;;;7.70;99.90;;;;;;5074444;28;20052;-63
2024/02/17 07:11:15;;;;;;;3.10;0.93;;;7.70;99.90;;;;;;5075038;28;20046;-63
2024/02/17 07:13:43;;;;;;;3.97;1.23;;;7.80;99.90;;;;;;5089878;28;20055;-63
2024/02/17 07:16:09;;;;;;;4.57;1.08;;;7.80;99.90;;;;;;5074628;28;20054;-63
2024/02/17 07:18:37;;;;;;;1.63;1.08;;;7.70;99.90;;;;;;5071435;28;20071;-63
2024/02/17 07:21:03;;;;;;;3.13;1.23;;;7.80;99.90;;;;;;5077995;28;20102;-63
2024/02/17 07:23:30;;;;;;;2.42;1.90;;;7.80;99.90;;;;;;5089869;28;20044;-63
2024/02/17 07:26:00;;;;;;;4.22;1.13;;;7.80;99.90;;;;;;5075495;28;20040;-63
2024/02/17 07:28:25;;;;;;;5.57;1.27;;;7.80;99.90;;;;;;5109549;27;20067;-63
2024/02/17 07:30:51;;;;;;;3.38;1.70;;;7.80;99.90;;;;;;5096414;28;20080;-63
2024/02/17 07:33:18;;;;;;;3.00;1.52;;;7.80;99.90;;;;;;5075446;28;20444;-63
2024/02/17 07:35:45;;;;;;;2.60;1.25;;;7.80;99.90;;;;;;5106222;27;20040;-63
2024/02/17 07:38:11;;;;;;;5.85;1.33;;;7.80;99.90;;;;;;5107639;27;20032;-63
2024/02/17 07:40:38;;;;;;;6.55;1.33;;;7.90;99.90;;;;;;5107269;27;20045;-63
2024/02/17 07:43:04;;;;;;;3.85;1.10;;;7.90;99.90;;;;;;5075842;28;20225;-63
2024/02/17 07:45:31;;;;;;;11.00;1.48;;;7.90;99.90;;;;;;5093104;28;20036;-63
2024/02/17 07:47:56;;;;;;;2.83;0.93;;;7.90;99.90;;;;;;5098099;28;20118;-63
2024/02/17 07:50:22;;;;;;;2.63;0.90;;;7.90;99.90;;;;;;5094034;28;20188;-63
2024/02/17 07:52:48;;;;;;;2.13;1.17;;;7.90;99.90;;;;;;5093917;28;20074;-63
2024/02/17 07:55:13;;;;;;;2.17;0.90;;;7.90;99.90;;;;;;5111011;27;20036;-63
2024/02/17 07:57:39;;;;;;;2.20;1.20;;;7.90;99.90;;;;;;5093157;28;20722;-63
2024/02/17 08:00:05;;;;;;;2.85;1.20;;;7.90;99.90;;;;;;5088039;28;20123;-63
2024/02/17 08:02:31;;;;;;;2.08;1.30;;;7.90;99.90;;;;;;5095141;28;20082;-63
2024/02/17 08:04:57;;;;;;;3.50;1.00;;;7.90;99.90;;;;;;5084814;28;20063;-65
2024/02/17 08:07:22;;;;;;;4.28;1.27;;;8.00;99.90;;;;;;5074865;28;20055;-64
2024/02/17 08:09:48;;;;;;;4.75;1.27;;;8.00;99.90;;;;;;5068140;28;20174;-65
2024/02/17 08:12:14;;;;;;;3.55;1.67;;;8.00;99.90;;;;;;5071641;28;20040;-65
2024/02/17 08:14:40;;;;;;;3.25;1.40;;;8.10;99.90;;;;;;5073105;28;20047;-65
2024/02/17 08:17:07;;;;;;;5.38;1.30;;;8.10;99.90;;;;;;5095362;28;20405;-64
2024/02/17 08:19:32;;;;;;;5.80;1.52;;;8.10;99.90;;;;;;5072131;28;20040;-64
2024/02/17 08:21:58;;;;;;;3.13;0.95;;;8.20;99.90;;;;;;5094080;28;20032;-64
2024/02/17 08:24:24;;;;;;;4.93;0.98;;;8.50;99.90;;;;;;5076421;28;20044;-64
2024/02/17 08:26:50;;;;;;;2.90;1.05;;;8.10;99.90;;;;;;5106574;27;20492;-65
2024/02/17 08:29:15;;;;;;;3.95;1.23;;;8.10;99.90;;;;;;5090857;28;20127;-64
2024/02/17 08:31:49;;;;;;;4.72;1.33;;;8.20;99.90;;;;;;5075096;28;20085;-65
2024/02/17 08:34:14;;;;;;;5.63;1.55;;;8.20;99.90;;;;;;5075835;28;20412;-64
2024/02/17 08:36:40;;;;;;;4.82;1.25;;;8.20;99.90;;;;;;5075280;28;20097;-64
2024/02/17 08:39:05;;;;;;;4.43;1.17;;;8.20;99.90;;;;;;5070493;28;20047;-64
2024/02/17 08:41:31;;;;;;;2.78;0.98;;;8.20;99.90;;;;;;5102982;27;20044;-64
2024/02/17 08:43:57;;;;;;;2.42;0.63;;;8.10;99.90;;;;;;5075135;28;20052;-64
2024/02/17 08:46:22;;;;;;;1.77;0.80;;;8.20;99.90;;;;;;5078375;28;20035;-64
2024/02/17 08:48:48;;;;;;;2.40;0.90;;;8.10;99.90;;;;;;5070767;28;21563;-64
2024/02/17 08:51:15;;;;;;;2.10;0.82;;;8.10;99.90;;;;;;5096358;28;20543;-64
2024/02/17 08:53:40;;;;;;;2.10;0.52;;;8.10;99.90;;;;;;5090728;28;20489;-64
2024/02/17 08:56:06;;;;;;;1.77;0.57;;;8.10;99.90;;;;;;5058190;28;20055;-63
2024/02/17 08:58:31;;;;;;;1.90;0.50;;;8.20;99.90;;;;;;5065241;28;20566;-63
2024/02/17 09:00:57;;;;;;;2.85;0.90;;;8.20;99.90;;;;;;5071672;28;20040;-63
2024/02/17 09:03:23;;;;;;;4.82;0.70;;;8.20;99.90;;;;;;5070931;28;20040;-63
2024/02/17 09:05:49;;;;;;;1.83;0.90;;;8.20;99.90;;;;;;5070258;28;20086;-63
2024/02/17 09:08:15;;;;;;;4.32;0.55;;;8.30;99.90;;;;;;5098113;28;20040;-63
2024/02/17 09:10:40;;;;;;;1.85;0.57;;;8.30;99.90;;;;;;5074243;28;20050;-63
2024/02/17 09:13:06;;;;;;;1.48;0.50;;;8.20;99.90;;;;;;5095693;28;20032;-63
2024/02/17 09:15:32;;;;;;;4.97;1.58;;;8.30;99.90;;;;;;5088281;28;20104;-63
2024/02/17 09:17:59;;;;;;;3.67;0.77;;;8.30;99.90;;;;;;5091571;28;20130;-63
2024/02/17 09:20:25;;;;;;;2.67;0.85;;;8.40;99.90;;;;;;5092179;28;20822;-63
2024/02/17 09:22:51;;;;;;;2.85;0.68;;;8.40;99.90;;;;;;5091396;28;20191;-63
2024/02/17 09:25:18;;;;;;;1.65;0.50;;;8.40;99.90;;;;;;5088442;28;20040;-63
2024/02/17 09:27:45;;;;;;;2.72;0.60;;;8.50;99.90;;;;;;5092286;28;20373;-63
2024/02/17 09:30:11;;;;;;;1.52;0.70;;;8.50;99.90;;;;;;5074624;28;20044;-63
2024/02/17 09:32:37;;;;;;;2.13;0.70;;;8.50;99.90;;;;;;5074506;28;20165;-63
2024/02/17 09:35:03;;;;;;;5.57;0.80;;;8.50;99.90;;;;;;5075874;28;20047;-63
2024/02/17 09:37:28;;;;;;;6.13;1.15;;;8.60;99.90;;;;;;5110515;27;20043;-63
2024/02/17 09:39:54;;;;;;;2.05;0.80;;;8.60;99.90;;;;;;5076789;28;20067;-63
2024/02/17 09:42:19;;;;;;;2.90;0.63;;;8.70;99.90;;;;;;5092752;28;20051;-63
2024/02/17 09:44:46;;;;;;;3.08;0.80;;;8.70;99.90;;;;;;5109414;27;20070;-63
2024/02/17 09:47:12;;;;;;;2.75;0.93;;;8.70;99.90;;;;;;5077309;28;20050;-63
2024/02/17 09:49:39;;;;;;;2.22;0.50;;;8.80;99.90;;;;;;5075873;28;20027;-63
2024/02/17 09:52:06;;;;;;;3.53;1.38;;;8.80;99.90;;;;;;5095376;28;20412;-63
2024/02/17 09:54:33;;;;;;;5.20;0.75;;;8.80;99.90;;;;;;5094841;28;20454;-63
2024/02/17 09:57:00;;;;;;;3.25;0.60;;;8.90;99.90;;;;;;5053750;28;20088;-63
2024/02/17 09:59:25;;;;;;;2.70;0.50;;;8.90;99.90;;;;;;5073537;28;20784;-63
2024/02/17 10:01:51;;;;;;;3.83;0.60;;;9.00;99.90;;;;;;5064589;28;20032;-63
2024/02/17 10:04:18;;;;;;;4.68;0.80;;;9.00;99.90;;;;;;5073651;28;20435;-63
2024/02/17 10:06:44;;;;;;;2.90;0.88;;;9.00;99.90;;;;;;5072560;28;20090;-63
2024/02/17 10:09:19;;;;;;;3.55;0.65;;;9.00;99.90;;;;;;5103687;27;20095;-63
2024/02/17 10:11:45;;;;;;;4.15;0.70;;;9.00;99.90;;;;;;5074068;28;20032;-62
2024/02/17 10:14:12;;;;;;;2.70;0.63;;;9.20;99.90;;;;;;5109992;27;20036;-62
2024/02/17 10:16:39;;;;;;;4.15;0.93;;;9.20;99.90;;;;;;5065055;28;20525;-62
2024/02/17 10:19:05;;;;;;;6.38;1.05;;;9.20;99.90;;;;;;5078883;28;20040;-63
2024/02/17 10:21:31;;;;;;;3.70;0.75;;;9.20;99.90;;;;;;5091793;28;20493;-62
2024/02/17 10:23:56;;;;;;;6.78;1.05;;;9.20;99.90;;;;;;5073923;28;20135;-62
2024/02/17 10:26:22;;;;;;;3.42;0.60;;;9.20;99.90;;;;;;5093318;28;20557;-62
2024/02/17 10:28:55;;;;;;;3.38;0.70;;;9.20;99.90;;;;;;5091265;28;20039;-62
2024/02/17 10:31:21;;;;;;;3.15;0.50;;;9.30;99.90;;;;;;5092940;28;20644;-63
2024/02/17 10:33:48;;;;;;;2.63;0.70;;;9.30;99.90;;;;;;5106042;27;20035;-63
2024/02/17 10:36:16;;;;;;;2.67;0.57;;;9.40;99.90;;;;;;5091162;28;20600;-63
2024/02/17 10:38:42;;;;;;;2.97;0.70;;;9.40;99.90;;;;;;5061707;28;20122;-62
2024/02/17 10:41:09;;;;;;;2.58;0.80;;;9.40;99.90;;;;;;5074527;28;20478;-63
2024/02/17 10:43:38;;;;;;;3.22;0.70;;;9.60;99.90;;;;;;5108290;27;20043;-64
2024/02/17 10:46:26;;;;;;;8.32;0.60;;;9.60;99.90;;;;;;5095320;28;20035;-63
2024/02/17 10:49:02;;;;;;;2.33;1.02;;;9.70;99.90;;;;;;5056863;28;20048;-63
2024/02/17 10:51:29;;;;;;;0.77;0.40;;;9.80;99.90;;;;;;5093318;28;20028;-63
2024/02/17 10:54:02;;;;;;;1.73;0.55;;;10.00;99.90;;;;;;5079059;28;20081;-63
2024/02/17 10:56:28;;;;;;;2.33;0.57;;;10.30;99.90;;;;;;5092457;28;20089;-63
2024/02/17 10:58:56;;;;;;;4.18;0.70;;;10.50;99.90;;;;;;5078157;28;21369;-63
2024/02/17 11:01:29;;;;;;;2.33;0.57;;;10.60;99.90;;;;;;5090617;28;20394;-63
2024/02/17 11:03:56;;;;;;;3.45;1.15;;;10.70;99.90;;;;;;5077608;28;20048;-63
2024/02/17 11:06:23;;;;;;;1.65;0.52;;;10.80;99.90;;;;;;5109352;27;20041;-64
2024/02/17 11:08:49;;;;;;;1.65;0.60;;;10.90;99.90;;;;;;5094223;28;20032;-63
2024/02/17 11:11:27;;;;;;;4.07;1.17;;;11.00;99.90;;;;;;5106286;27;20051;-63
2024/02/17 11:13:54;;;;;;;2.92;0.63;;;11.00;99.90;;;;;;5074224;28;20050;-63
2024/02/17 11:16:22;;;;;;;2.63;0.65;;;11.00;99.90;;;;;;5094494;28;20414;-63
2024/02/17 11:18:53;;;;;;;6.05;0.60;;;11.10;99.90;;;;;;5093533;28;20036;-63
2024/02/17 11:21:33;;;;;;;2.50;0.40;;;11.20;99.90;;;;;;5090671;28;20485;-64
2024/02/17 11:24:00;;;;;;;4.20;0.60;;;11.20;99.90;;;;;;5092029;28;20075;-63
2024/02/17 11:26:26;;;;;;;2.67;0.57;;;11.10;99.90;;;;;;5092895;28;20059;-63
2024/02/17 11:28:52;;;;;;;2.55;0.73;;;11.10;99.90;;;;;;5093105;28;20304;-63
2024/02/17 11:31:18;;;;;;;1.42;0.40;;;11.30;99.90;;;;;;5095758;28;20043;-63
2024/02/17 11:33:47;;;;;;;1.50;0.50;;;11.60;99.90;;;;;;5092141;28;20077;-64
2024/02/17 11:36:14;;;;;;;3.58;0.50;;;11.80;99.90;;;;;;5090497;28;20044;-63
2024/02/17 11:38:41;;;;;;;4.32;1.13;;;12.10;99.90;;;;;;5070783;28;20032;-63
2024/02/17 11:41:07;;;;;;;1.65;0.68;;;12.20;99.90;;;;;;5093025;28;20381;-63
2024/02/17 11:43:35;;;;;;;1.90;0.80;;;12.50;99.90;;;;;;5059289;28;20050;-63
2024/02/17 11:46:03;;;;;;;0.95;0.30;;;12.70;99.90;;;;;;5075659;28;20081;-63
2024/02/17 11:48:30;;;;;;;4.15;0.50;;;12.80;99.90;;;;;;5057852;28;20149;-63
2024/02/17 11:51:22;;;;;;;2.63;0.40;;;12.60;99.90;;;;;;5072998;28;20375;-64
2024/02/17 11:53:49;;;;;;;1.15;0.50;;;12.70;99.90;;;;;;5094345;28;20036;-63
2024/02/17 11:56:16;;;;;;;2.05;0.77;;;12.70;99.90;;;;;;5076267;28;20478;-63
2024/02/17 11:58:44;;;;;;;1.73;0.45;;;12.50;99.90;;;;;;5093167;28;20613;-63
2024/02/17 12:01:13;;;;;;;4.00;0.40;;;12.60;99.90;;;;;;5076585;28;20442;-64
2024/02/17 12:03:42;;;;;;;0.98;0.20;;;12.60;99.90;;;;;;5069671;28;20048;-63
2024/02/17 12:06:08;;;;;;;2.30;0.38;;;12.70;99.90;;;;;;5091087;28;20401;-63
2024/02/17 12:08:35;;;;;;;1.70;0.50;;;12.60;99.90;;;;;;5089105;28;20048;-63
2024/02/17 12:11:02;;;;;;;2.83;0.50;;;12.50;99.90;;;;;;5077107;28;20554;-63
2024/02/17 12:13:28;;;;;;;2.00;0.40;;;12.30;99.90;;;;;;5063871;28;20051;-63
2024/02/17 12:16:02;;;;;;;1.35;0.52;;;12.10;99.90;;;;;;5090766;28;20517;-63
2024/02/17 12:18:28;;;;;;;1.40;0.38;;;12.00;99.90;;;;;;5093306;28;20044;-64
2024/02/17 12:20:54;;;;;;;2.35;0.50;;;11.90;99.90;;;;;;5092072;28;20035;-63
2024/02/17 12:23:20;;;;;;;1.25;0.40;;;11.80;99.90;;;;;;5089774;28;20028;-64
2024/02/17 12:25:50;;;;;;;2.92;1.10;;;11.90;99.90;;;;;;5072684;28;20042;-64
2024/02/17 12:28:16;;;;;;;19.15;2.97;;;11.80;99.90;;;;;;5090535;28;20036;-64
2024/02/17 12:30:50;;;;;;;2.97;0.50;;;11.90;99.90;;;;;;5087364;28;20042;-64
2024/02/17 12:33:20;;;;;;;2.35;0.40;;;11.90;99.90;;;;;;5076711;28;20466;-64
2024/02/17 12:35:52;;;;;;;1.45;0.50;;;11.80;99.90;;;;;;5090174;28;20044;-64
2024/02/17 12:38:19;;;;;;;2.88;0.57;;;11.80;99.90;;;;;;5094276;28;20604;-63
2024/02/17 12:40:48;;;;;;;1.52;0.50;;;11.80;99.90;;;;;;5075096;28;20367;-64
2024/02/17 12:43:19;;;;;;;2.72;0.38;;;11.80;99.90;;;;;;5087765;28;20048;-64
2024/02/17 12:45:44;;;;;;;1.88;0.35;;;11.80;99.90;;;;;;5096257;28;20071;-64
2024/02/17 12:48:10;;;;;;;3.42;0.45;;;11.90;99.90;;;;;;5076064;28;20082;-64